createdAt,value
2023-07-30T00:02:25.426Z,91.10
2023-07-30T00:05:11.090Z,91.30
2023-07-30T00:07:56.664Z,91.50
2023-07-30T00:10:42.177Z,91.60
2023-07-30T00:13:28.918Z,91.70
2023-07-30T00:16:14.720Z,91.80
2023-07-30T00:19:00.585Z,92.00
2023-07-30T00:21:47.701Z,91.90
2023-07-30T00:24:33.558Z,91.90
2023-07-30T00:27:23.559Z,92.00
2023-07-30T00:30:10.590Z,91.80
2023-07-30T00:32:56.218Z,91.90
2023-07-30T00:35:41.679Z,91.90
2023-07-30T00:38:27.045Z,92.00
2023-07-30T00:41:12.675Z,92.20
2023-07-30T00:44:00.321Z,92.40
2023-07-30T00:46:46.191Z,92.40
2023-07-30T00:49:32.021Z,92.40
2023-07-30T00:52:19.495Z,92.40
2023-07-30T00:55:05.474Z,92.40
2023-07-30T00:57:51.608Z,92.30
2023-07-30T01:00:37.087Z,92.30
2023-07-30T01:03:23.299Z,92.30
2023-07-30T01:06:08.800Z,92.40
2023-07-30T01:08:54.216Z,92.40
2023-07-30T01:11:40.705Z,92.40
2023-07-30T01:14:29.737Z,92.50
2023-07-30T01:17:15.233Z,92.40
2023-07-30T01:20:00.703Z,92.40
2023-07-30T01:22:46.185Z,92.50
2023-07-30T01:25:37.286Z,92.50
2023-07-30T01:28:23.940Z,92.70
2023-07-30T01:31:14.130Z,92.80
2023-07-30T01:34:03.100Z,92.90
2023-07-30T01:36:49.934Z,92.80
2023-07-30T01:39:43.457Z,93.00
2023-07-30T01:42:32.302Z,93.10
2023-07-30T01:45:18.183Z,93.30
2023-07-30T01:48:04.344Z,93.60
2023-07-30T01:50:50.312Z,93.80
2023-07-30T01:53:35.936Z,93.80
2023-07-30T01:56:25.534Z,93.90
2023-07-30T01:59:11.224Z,94.20
2023-07-30T02:01:56.794Z,94.30
2023-07-30T02:04:42.077Z,94.70
2023-07-30T02:07:27.414Z,94.80
2023-07-30T02:10:14.372Z,95.20
2023-07-30T02:13:00.040Z,95.30
2023-07-30T02:15:45.647Z,95.30
2023-07-30T02:18:31.331Z,95.60
2023-07-30T02:21:19.353Z,95.70
2023-07-30T02:24:05.449Z,95.90
2023-07-30T02:26:50.833Z,95.80
2023-07-30T02:29:36.764Z,95.70
2023-07-30T02:32:22.213Z,95.90
2023-07-30T02:35:08.155Z,95.90
2023-07-30T02:37:53.765Z,96.30
2023-07-30T02:40:39.375Z,96.40
2023-07-30T02:43:28.689Z,96.60
2023-07-30T02:46:14.830Z,96.90
2023-07-30T02:49:00.564Z,96.50
2023-07-30T02:51:49.657Z,96.40
2023-07-30T02:54:35.250Z,96.70
2023-07-30T02:57:20.770Z,97.00
2023-07-30T03:00:09.347Z,97.20
2023-07-30T03:02:55.107Z,97.30
2023-07-30T03:05:44.378Z,97.50
2023-07-30T03:08:30.399Z,97.60
2023-07-30T03:11:16.066Z,97.80
2023-07-30T03:14:01.423Z,98.10
2023-07-30T03:16:47.563Z,98.30
2023-07-30T03:19:33.196Z,98.70
2023-07-30T03:22:18.710Z,99.20
2023-07-30T03:25:05.533Z,99.90
2023-07-30T03:27:51.178Z,99.90
2023-07-30T03:30:36.822Z,99.90
2023-07-30T03:33:22.625Z,99.90
2023-07-30T03:36:11.077Z,99.90
2023-07-30T03:38:57.052Z,99.90
2023-07-30T03:41:44.486Z,99.90
2023-07-30T03:44:32.252Z,99.90
2023-07-30T03:47:17.904Z,99.90
2023-07-30T03:50:03.706Z,99.90
2023-07-30T03:52:49.108Z,99.90
2023-07-30T03:55:34.845Z,99.90
2023-07-30T03:58:21.814Z,99.90
2023-07-30T04:01:10.094Z,99.90
2023-07-30T04:03:55.820Z,99.90
2023-07-30T04:06:41.520Z,99.90
2023-07-30T04:09:26.915Z,99.90
2023-07-30T04:12:12.871Z,99.90
2023-07-30T04:14:58.591Z,99.90
2023-07-30T04:17:46.506Z,99.90
2023-07-30T04:20:32.169Z,99.90
2023-07-30T04:23:17.364Z,99.90
2023-07-30T04:26:02.684Z,99.90
2023-07-30T04:28:48.309Z,99.90
2023-07-30T04:31:34.265Z,99.90
2023-07-30T04:34:19.573Z,99.90
2023-07-30T04:37:06.587Z,99.90
2023-07-30T04:39:55.787Z,99.90
2023-07-30T04:42:41.471Z,99.90
2023-07-30T04:45:27.026Z,99.90
2023-07-30T04:48:13.690Z,99.90
2023-07-30T04:50:59.344Z,99.90
2023-07-30T04:53:45.104Z,99.90
2023-07-30T04:56:30.829Z,99.90
2023-07-30T04:59:17.624Z,99.90
2023-07-30T05:02:03.781Z,99.90
2023-07-30T05:04:49.512Z,99.90
2023-07-30T05:07:34.959Z,99.90
2023-07-30T05:10:20.483Z,99.90
2023-07-30T05:13:06.183Z,99.90
2023-07-30T05:15:51.902Z,99.90
2023-07-30T05:18:37.609Z,99.90
2023-07-30T05:21:23.136Z,99.90
2023-07-30T05:24:09.085Z,99.90
2023-07-30T05:26:54.716Z,99.90
2023-07-30T05:29:40.436Z,99.90
2023-07-30T05:32:27.126Z,99.90
2023-07-30T05:35:12.858Z,99.90
2023-07-30T05:37:58.277Z,99.90
2023-07-30T05:40:43.583Z,99.90
2023-07-30T05:43:29.478Z,99.90
2023-07-30T05:46:15.125Z,99.90
2023-07-30T05:49:01.493Z,99.90
2023-07-30T05:51:46.831Z,99.90
2023-07-30T05:54:32.055Z,99.90
2023-07-30T05:57:17.559Z,99.40
2023-07-30T06:00:03.502Z,97.50
2023-07-30T06:02:57.277Z,97.80
2023-07-30T06:05:43.417Z,96.80
2023-07-30T06:08:30.684Z,96.20
2023-07-30T06:11:15.832Z,95.70
2023-07-30T06:14:01.111Z,95.40
2023-07-30T06:16:46.879Z,95.80
2023-07-30T06:19:32.280Z,94.80
2023-07-30T06:22:17.888Z,95.10
2023-07-30T06:25:03.768Z,93.50
2023-07-30T06:27:49.375Z,93.90
2023-07-30T06:30:35.316Z,94.00
2023-07-30T06:33:20.976Z,93.40
2023-07-30T06:36:06.975Z,93.50
2023-07-30T06:38:52.425Z,93.60
2023-07-30T06:41:45.454Z,92.80
2023-07-30T06:44:31.838Z,92.60
2023-07-30T06:47:17.741Z,91.80
2023-07-30T06:50:04.124Z,91.50
2023-07-30T06:52:50.082Z,90.90
2023-07-30T06:55:35.852Z,91.20
2023-07-30T06:58:23.982Z,90.20
2023-07-30T07:01:09.243Z,88.90
2023-07-30T07:03:54.961Z,87.60
2023-07-30T07:06:40.863Z,86.60
2023-07-30T07:09:26.094Z,86.10
2023-07-30T07:12:11.968Z,86.30
2023-07-30T07:14:59.385Z,86.00
2023-07-30T07:17:45.618Z,85.60
2023-07-30T07:20:31.461Z,85.00
2023-07-30T07:23:16.783Z,84.60
2023-07-30T07:26:02.651Z,85.30
2023-07-30T07:28:48.338Z,85.80
2023-07-30T07:31:36.070Z,84.70
2023-07-30T07:34:22.773Z,83.60
2023-07-30T07:37:08.446Z,83.60
2023-07-30T07:39:53.804Z,84.00
2023-07-30T07:42:42.121Z,85.70
2023-07-30T07:45:27.822Z,87.20
2023-07-30T07:48:13.215Z,87.10
2023-07-30T07:50:58.565Z,88.30
2023-07-30T07:53:44.308Z,85.80
2023-07-30T07:56:31.468Z,85.20
2023-07-30T07:59:17.004Z,84.60
2023-07-30T08:02:05.071Z,83.00
2023-07-30T08:04:50.764Z,83.20
2023-07-30T08:07:36.367Z,83.00
2023-07-30T08:10:21.956Z,81.70
2023-07-30T08:13:08.840Z,80.30
2023-07-30T08:15:54.032Z,78.30
2023-07-30T08:18:39.481Z,78.30
2023-07-30T08:21:25.062Z,77.20
2023-07-30T08:24:10.732Z,76.20
2023-07-30T08:26:56.658Z,72.40
2023-07-30T08:29:42.865Z,73.30
2023-07-30T08:32:28.494Z,72.50
2023-07-30T08:35:15.099Z,72.10
2023-07-30T08:38:00.520Z,71.10
2023-07-30T08:40:45.954Z,69.30
2023-07-30T08:43:32.666Z,70.00
2023-07-30T08:46:18.635Z,70.60
2023-07-30T08:49:05.005Z,70.60
2023-07-30T08:51:54.654Z,70.50
2023-07-30T08:54:41.797Z,69.90
2023-07-30T08:57:30.514Z,69.80
2023-07-30T09:00:18.333Z,69.50
2023-07-30T09:03:08.489Z,69.40
2023-07-30T09:05:53.967Z,70.40
2023-07-30T09:08:39.890Z,69.70
2023-07-30T09:11:29.129Z,69.00
2023-07-30T09:14:14.634Z,69.70
2023-07-30T09:17:00.357Z,69.40
2023-07-30T09:19:48.180Z,69.80
2023-07-30T09:22:41.941Z,70.00
2023-07-30T09:25:27.554Z,70.80
2023-07-30T09:28:13.330Z,69.00
2023-07-30T09:31:19.318Z,68.80
2023-07-30T09:34:07.217Z,65.70
2023-07-30T09:36:54.718Z,64.60
2023-07-30T09:39:40.584Z,63.40
2023-07-30T09:42:29.132Z,60.70
2023-07-30T09:45:20.737Z,61.40
2023-07-30T09:48:07.282Z,62.00
2023-07-30T09:50:54.144Z,61.80
2023-07-30T09:53:39.884Z,60.00
2023-07-30T09:56:25.604Z,58.00
2023-07-30T09:59:11.583Z,57.40
2023-07-30T10:01:58.407Z,58.10
2023-07-30T10:04:51.204Z,59.00
2023-07-30T10:07:37.524Z,58.50
2023-07-30T10:10:26.054Z,59.30
2023-07-30T10:13:13.545Z,61.00
2023-07-30T10:16:00.374Z,61.80
2023-07-30T10:18:47.110Z,61.90
2023-07-30T10:21:34.315Z,61.90
2023-07-30T10:24:19.796Z,61.10
2023-07-30T10:27:11.333Z,59.60
2023-07-30T10:30:20.424Z,58.10
2023-07-30T10:33:10.595Z,58.80
2023-07-30T10:35:56.769Z,57.20
2023-07-30T10:38:43.048Z,56.90
2023-07-30T10:41:28.626Z,56.40
2023-07-30T10:44:25.455Z,56.30
2023-07-30T10:47:23.038Z,56.60
2023-07-30T10:50:20.197Z,57.80
2023-07-30T10:53:08.725Z,58.30
2023-07-30T10:55:55.419Z,59.60
2023-07-30T10:58:41.194Z,59.00
2023-07-30T11:01:27.964Z,57.10
2023-07-30T11:04:18.900Z,56.50
2023-07-30T11:07:05.382Z,55.90
2023-07-30T11:10:04.517Z,56.00
2023-07-30T11:12:51.275Z,55.00
2023-07-30T11:15:43.067Z,53.20
2023-07-30T11:18:34.271Z,53.50
2023-07-30T11:21:20.450Z,53.10
2023-07-30T11:24:06.204Z,52.90
2023-07-30T11:27:10.871Z,53.60
2023-07-30T11:29:57.786Z,52.00
2023-07-30T11:32:45.987Z,50.90
2023-07-30T11:35:32.224Z,50.80
2023-07-30T11:38:20.669Z,50.40
2023-07-30T11:41:10.503Z,49.50
2023-07-30T11:43:56.901Z,50.60
2023-07-30T11:46:55.163Z,50.10
2023-07-30T11:49:40.908Z,48.20
2023-07-30T11:52:26.794Z,48.60
2023-07-30T11:55:14.797Z,49.50
2023-07-30T11:58:00.381Z,49.60
2023-07-30T12:00:46.029Z,48.20
2023-07-30T12:03:31.244Z,49.40
2023-07-30T12:06:16.976Z,50.10
2023-07-30T12:09:02.473Z,48.60
2023-07-30T12:11:55.996Z,47.90
2023-07-30T12:14:51.233Z,46.00
2023-07-30T12:17:36.632Z,46.00
2023-07-30T12:20:22.222Z,45.60
2023-07-30T12:23:08.515Z,43.80
2023-07-30T12:25:54.441Z,42.80
2023-07-30T12:28:40.005Z,41.90
2023-07-30T12:31:31.445Z,40.60
2023-07-30T12:34:17.179Z,38.90
2023-07-30T12:37:02.434Z,38.80
2023-07-30T12:39:48.281Z,37.80
2023-07-30T12:42:33.853Z,37.90
2023-07-30T12:45:19.182Z,38.00
2023-07-30T12:48:05.029Z,38.50
2023-07-30T12:50:50.412Z,39.00
2023-07-30T12:53:39.289Z,40.20
2023-07-30T12:56:24.705Z,39.10
2023-07-30T12:59:10.203Z,39.30
2023-07-30T13:01:55.773Z,39.40
2023-07-30T13:04:41.014Z,38.70
2023-07-30T13:07:26.857Z,39.00
2023-07-30T13:10:12.408Z,38.30
2023-07-30T13:12:57.647Z,39.10
2023-07-30T13:15:43.271Z,39.80
2023-07-30T13:18:29.603Z,40.70
2023-07-30T13:21:15.159Z,41.80
2023-07-30T13:24:00.431Z,42.90
2023-07-30T13:26:46.250Z,44.10
2023-07-30T13:29:32.083Z,45.30
2023-07-30T13:32:17.670Z,46.50
2023-07-30T13:35:02.922Z,47.00
2023-07-30T13:37:48.639Z,46.00
2023-07-30T13:40:37.061Z,47.10
2023-07-30T13:43:22.937Z,43.10
2023-07-30T13:46:08.468Z,43.70
2023-07-30T13:48:53.796Z,42.00
2023-07-30T13:51:39.764Z,42.50
2023-07-30T13:54:25.624Z,45.20
2023-07-30T13:57:11.187Z,47.70
2023-07-30T13:59:56.943Z,44.10
2023-07-30T14:02:42.524Z,41.50
2023-07-30T14:05:29.650Z,40.10
2023-07-30T14:08:15.117Z,41.70
2023-07-30T14:11:01.608Z,42.20
2023-07-30T14:13:47.613Z,43.70
2023-07-30T14:16:34.145Z,43.70
2023-07-30T14:19:19.861Z,40.60
2023-07-30T14:22:05.673Z,39.50
2023-07-30T14:24:51.200Z,39.60
2023-07-30T14:27:36.822Z,38.30
2023-07-30T14:30:22.199Z,39.00
2023-07-30T14:33:08.547Z,39.30
2023-07-30T14:35:53.873Z,39.20
2023-07-30T14:38:39.840Z,40.70
2023-07-30T14:41:25.552Z,42.10
2023-07-30T14:44:11.062Z,43.30
2023-07-30T14:46:58.494Z,44.00
2023-07-30T14:49:44.444Z,44.60
2023-07-30T14:52:30.140Z,45.20
2023-07-30T14:55:15.510Z,46.20
2023-07-30T14:58:02.020Z,46.80
2023-07-30T15:00:47.204Z,47.40
2023-07-30T15:03:32.597Z,48.00
2023-07-30T15:06:18.296Z,48.50
2023-07-30T15:09:03.881Z,49.00
2023-07-30T15:11:49.391Z,49.70
2023-07-30T15:14:34.862Z,50.10
2023-07-30T15:17:20.801Z,50.60
2023-07-30T15:20:06.767Z,51.30
2023-07-30T15:22:52.648Z,51.20
2023-07-30T15:25:38.633Z,50.80
2023-07-30T15:28:27.206Z,50.50
2023-07-30T15:31:13.818Z,49.90
2023-07-30T15:33:59.143Z,49.90
2023-07-30T15:36:45.226Z,49.60
2023-07-30T15:39:33.305Z,50.30
2023-07-30T15:42:18.944Z,50.60
2023-07-30T15:45:05.433Z,50.70
2023-07-30T15:47:57.110Z,51.50
2023-07-30T15:50:43.247Z,51.10
2023-07-30T15:53:28.830Z,51.50
2023-07-30T15:56:14.483Z,52.60
2023-07-30T15:59:00.027Z,53.90
2023-07-30T16:01:45.223Z,54.20
2023-07-30T16:04:35.842Z,54.60
2023-07-30T16:07:21.914Z,55.30
2023-07-30T16:10:07.857Z,56.20
2023-07-30T16:12:53.532Z,56.80
2023-07-30T16:15:38.904Z,57.60
2023-07-30T16:18:24.467Z,58.50
2023-07-30T16:21:10.751Z,59.20
2023-07-30T16:23:56.072Z,59.70
2023-07-30T16:26:43.836Z,60.10
2023-07-30T16:29:29.415Z,61.10
2023-07-30T16:32:16.370Z,62.20
2023-07-30T16:35:01.732Z,62.70
2023-07-30T16:37:47.278Z,63.70
2023-07-30T16:40:32.759Z,64.90
2023-07-30T16:43:21.867Z,66.20
2023-07-30T16:46:07.456Z,67.00
2023-07-30T16:48:52.905Z,67.70
2023-07-30T16:51:39.517Z,67.70
2023-07-30T16:54:25.051Z,68.40
2023-07-30T16:57:10.327Z,68.60
2023-07-30T16:59:56.070Z,70.00
2023-07-30T17:02:41.784Z,70.20
2023-07-30T17:05:27.264Z,71.20
2023-07-30T17:08:14.480Z,72.00
2023-07-30T17:11:05.704Z,72.10
2023-07-30T17:13:55.331Z,72.20
2023-07-30T17:16:44.521Z,72.50
2023-07-30T17:19:30.942Z,73.50
2023-07-30T17:22:16.610Z,74.00
2023-07-30T17:25:02.836Z,74.80
2023-07-30T17:27:48.489Z,75.90
2023-07-30T17:30:34.829Z,77.40
2023-07-30T17:33:22.576Z,77.70
2023-07-30T17:36:09.707Z,78.50
2023-07-30T17:38:55.700Z,79.40
2023-07-30T17:41:41.308Z,79.90
2023-07-30T17:44:27.183Z,80.70
2023-07-30T17:47:12.609Z,81.40
2023-07-30T17:49:58.303Z,82.10
2023-07-30T17:52:43.603Z,82.80
2023-07-30T17:55:29.172Z,83.20
2023-07-30T17:58:15.099Z,83.70
2023-07-30T18:01:10.922Z,84.20
2023-07-30T18:03:56.569Z,85.00
2023-07-30T18:06:42.795Z,85.40
2023-07-30T18:09:28.463Z,85.60
2023-07-30T18:12:16.154Z,86.00
2023-07-30T18:15:02.240Z,86.70
2023-07-30T18:17:48.377Z,86.70
2023-07-30T18:20:35.179Z,88.10
2023-07-30T18:23:20.845Z,88.20
2023-07-30T18:26:07.420Z,88.70
2023-07-30T18:28:53.278Z,90.30
2023-07-30T18:31:39.911Z,90.60
2023-07-30T18:34:25.307Z,91.20
2023-07-30T18:37:10.882Z,91.30
2023-07-30T18:39:59.294Z,92.00
2023-07-30T18:42:44.474Z,93.00
2023-07-30T18:45:34.421Z,94.00
2023-07-30T18:48:19.870Z,94.20
2023-07-30T18:51:05.286Z,94.60
2023-07-30T18:53:50.905Z,95.10
2023-07-30T18:56:36.802Z,95.70
2023-07-30T18:59:22.288Z,96.10
2023-07-30T19:02:08.262Z,96.60
2023-07-30T19:04:54.171Z,96.50
2023-07-30T19:07:39.704Z,97.30
2023-07-30T19:10:27.531Z,97.20
2023-07-30T19:13:13.114Z,98.20
2023-07-30T19:15:58.918Z,98.10
2023-07-30T19:18:45.322Z,98.90
2023-07-30T19:21:30.837Z,99.20
2023-07-30T19:24:16.844Z,99.50
2023-07-30T19:27:02.447Z,99.90
2023-07-30T19:29:47.912Z,99.90
2023-07-30T19:32:33.695Z,99.90
2023-07-30T19:35:19.228Z,99.90
2023-07-30T19:38:06.683Z,99.90
2023-07-30T19:40:55.461Z,99.90
2023-07-30T19:43:42.647Z,99.90
2023-07-30T19:46:28.199Z,99.90
2023-07-30T19:49:14.548Z,99.90
2023-07-30T19:52:00.658Z,99.90
2023-07-30T19:54:46.180Z,99.90
2023-07-30T19:57:31.813Z,99.90
2023-07-30T20:00:17.491Z,99.90
2023-07-30T20:03:03.127Z,99.90
2023-07-30T20:05:49.505Z,99.90
2023-07-30T20:08:36.198Z,99.90
2023-07-30T20:11:24.514Z,99.90
2023-07-30T20:14:10.171Z,99.90
2023-07-30T20:16:55.663Z,99.90
2023-07-30T20:19:41.728Z,99.90
2023-07-30T20:22:27.246Z,99.90
2023-07-30T20:25:12.849Z,99.90
2023-07-30T20:27:58.043Z,99.90
2023-07-30T20:30:43.672Z,99.90
2023-07-30T20:33:29.016Z,99.90
2023-07-30T20:36:14.563Z,99.90
2023-07-30T20:39:00.440Z,99.90
2023-07-30T20:41:45.810Z,99.90
2023-07-30T20:44:32.111Z,99.90
2023-07-30T20:47:20.287Z,99.90
2023-07-30T20:50:06.595Z,99.90
2023-07-30T20:52:51.903Z,99.90
2023-07-30T20:55:37.687Z,99.90
2023-07-30T20:58:24.006Z,99.90
2023-07-30T21:01:12.108Z,99.90
2023-07-30T21:03:59.104Z,99.90
2023-07-30T21:06:44.898Z,99.90
2023-07-30T21:09:30.642Z,99.90
2023-07-30T21:12:16.123Z,99.90
2023-07-30T21:15:10.625Z,99.90
2023-07-30T21:17:57.109Z,99.90
2023-07-30T21:20:43.694Z,99.90
2023-07-30T21:23:29.284Z,99.90
2023-07-30T21:26:17.930Z,99.90
2023-07-30T21:29:03.385Z,99.90
2023-07-30T21:31:49.009Z,99.90
2023-07-30T21:34:35.061Z,99.90
2023-07-30T21:37:20.580Z,99.90
2023-07-30T21:40:07.033Z,99.90
2023-07-30T21:42:53.984Z,99.90
2023-07-30T21:45:39.484Z,99.90
2023-07-30T21:48:25.116Z,99.90
2023-07-30T21:51:10.532Z,99.90
2023-07-30T21:53:56.200Z,99.90
2023-07-30T21:56:41.870Z,99.90
2023-07-30T21:59:27.365Z,99.90
2023-07-30T22:02:15.405Z,99.90
2023-07-30T22:05:00.937Z,99.90
2023-07-30T22:07:46.300Z,99.90
2023-07-30T22:10:31.470Z,99.90
2023-07-30T22:13:19.141Z,99.90
2023-07-30T22:16:05.003Z,99.90
2023-07-30T22:18:50.457Z,99.90
2023-07-30T22:21:36.113Z,99.90
2023-07-30T22:24:21.512Z,99.90
2023-07-30T22:27:07.359Z,99.90
2023-07-30T22:29:52.938Z,99.90
2023-07-30T22:32:38.847Z,99.90
2023-07-30T22:35:24.258Z,99.90
2023-07-30T22:38:09.638Z,99.90
2023-07-30T22:40:55.298Z,99.90
2023-07-30T22:43:40.780Z,99.90
2023-07-30T22:46:26.678Z,99.90
2023-07-30T22:49:12.386Z,99.90
2023-07-30T22:51:57.790Z,99.90
2023-07-30T22:54:43.410Z,99.90
2023-07-30T22:57:28.932Z,99.90
2023-07-30T23:00:14.654Z,99.90
2023-07-30T23:03:00.154Z,99.90
2023-07-30T23:05:45.563Z,99.90
2023-07-30T23:08:30.797Z,99.90
2023-07-30T23:11:17.101Z,99.90
2023-07-30T23:14:02.625Z,99.90
2023-07-30T23:16:48.129Z,99.90
2023-07-30T23:19:33.724Z,99.90
2023-07-30T23:22:18.969Z,99.90
2023-07-30T23:25:04.907Z,99.90
2023-07-30T23:27:50.186Z,99.90
2023-07-30T23:30:36.379Z,99.90
2023-07-30T23:33:21.862Z,99.90
2023-07-30T23:36:09.312Z,99.90
2023-07-30T23:38:54.663Z,99.90
2023-07-30T23:41:40.341Z,99.90
2023-07-30T23:44:25.825Z,99.90
2023-07-30T23:47:11.557Z,99.90
2023-07-30T23:49:57.136Z,99.90
2023-07-30T23:52:42.836Z,99.90
2023-07-30T23:55:28.275Z,99.90
2023-07-30T23:58:13.713Z,99.90
